sensor_id;sensor_type;location;lat;lon;timestamp;P1;durP1;ratioP1;P2;durP2;ratioP2
920;SDS011;447;51.332;6.778;2022-08-21T00:01:40;3.40;;;3.10;;
920;SDS011;447;51.332;6.778;2022-08-21T00:04:06;3.80;;;3.30;;
920;SDS011;447;51.332;6.778;2022-08-21T00:06:33;4.50;;;3.00;;
920;SDS011;447;51.332;6.778;2022-08-21T00:09:03;4.20;;;3.00;;
920;SDS011;447;51.332;6.778;2022-08-21T00:11:31;3.17;;;2.70;;
920;SDS011;447;51.332;6.778;2022-08-21T00:13:58;3.40;;;2.93;;
920;SDS011;447;51.332;6.778;2022-08-21T00:16:29;3.93;;;3.07;;
920;SDS011;447;51.332;6.778;2022-08-21T00:18:55;4.27;;;3.00;;
920;SDS011;447;51.332;6.778;2022-08-21T00:21:26;6.63;;;3.70;;
920;SDS011;447;51.332;6.778;2022-08-21T00:23:52;4.73;;;2.90;;
920;SDS011;447;51.332;6.778;2022-08-21T00:26:18;3.97;;;2.93;;
920;SDS011;447;51.332;6.778;2022-08-21T00:28:44;4.13;;;2.90;;
920;SDS011;447;51.332;6.778;2022-08-21T00:31:11;3.60;;;3.30;;
920;SDS011;447;51.332;6.778;2022-08-21T00:33:37;3.40;;;2.90;;
920;SDS011;447;51.332;6.778;2022-08-21T00:36:06;3.23;;;2.93;;
920;SDS011;447;51.332;6.778;2022-08-21T00:38:32;3.30;;;3.00;;
920;SDS011;447;51.332;6.778;2022-08-21T00:41:01;4.20;;;3.00;;
920;SDS011;447;51.332;6.778;2022-08-21T00:43:31;4.20;;;2.97;;
920;SDS011;447;51.332;6.778;2022-08-21T00:45:59;3.70;;;3.10;;
920;SDS011;447;51.332;6.778;2022-08-21T00:48:26;3.20;;;2.90;;
920;SDS011;447;51.332;6.778;2022-08-21T00:50:54;3.90;;;3.50;;
920;SDS011;447;51.332;6.778;2022-08-21T00:53:25;3.63;;;3.30;;
920;SDS011;447;51.332;6.778;2022-08-21T00:55:53;3.97;;;3.33;;
920;SDS011;447;51.332;6.778;2022-08-21T00:58:21;5.40;;;3.20;;
920;SDS011;447;51.332;6.778;2022-08-21T01:01:04;5.00;;;3.50;;
920;SDS011;447;51.332;6.778;2022-08-21T01:03:31;3.30;;;3.00;;
920;SDS011;447;51.332;6.778;2022-08-21T01:05:58;4.50;;;3.30;;
920;SDS011;447;51.332;6.778;2022-08-21T01:08:24;3.90;;;3.40;;
920;SDS011;447;51.332;6.778;2022-08-21T01:10:51;4.27;;;3.20;;
920;SDS011;447;51.332;6.778;2022-08-21T01:13:24;3.77;;;3.07;;
920;SDS011;447;51.332;6.778;2022-08-21T01:15:56;3.43;;;3.13;;
920;SDS011;447;51.332;6.778;2022-08-21T01:18:25;3.60;;;3.20;;
920;SDS011;447;51.332;6.778;2022-08-21T01:23:49;5.30;;;3.27;;
920;SDS011;447;51.332;6.778;2022-08-21T01:26:35;3.67;;;3.30;;
920;SDS011;447;51.332;6.778;2022-08-21T01:31:41;4.80;;;3.20;;
920;SDS011;447;51.332;6.778;2022-08-21T01:34:08;5.50;;;3.53;;
920;SDS011;447;51.332;6.778;2022-08-21T01:36:37;5.60;;;3.53;;
920;SDS011;447;51.332;6.778;2022-08-21T01:39:06;4.63;;;3.50;;
920;SDS011;447;51.332;6.778;2022-08-21T01:41:32;4.40;;;3.20;;
920;SDS011;447;51.332;6.778;2022-08-21T01:43:59;4.37;;;3.10;;
920;SDS011;447;51.332;6.778;2022-08-21T01:46:25;4.97;;;3.70;;
920;SDS011;447;51.332;6.778;2022-08-21T01:48:56;3.70;;;3.30;;
920;SDS011;447;51.332;6.778;2022-08-21T01:51:22;5.70;;;3.30;;
920;SDS011;447;51.332;6.778;2022-08-21T01:53:49;3.87;;;3.43;;
920;SDS011;447;51.332;6.778;2022-08-21T01:56:15;3.63;;;3.30;;
920;SDS011;447;51.332;6.778;2022-08-21T01:58:43;4.60;;;3.33;;
920;SDS011;447;51.332;6.778;2022-08-21T02:01:13;3.70;;;3.17;;
920;SDS011;447;51.332;6.778;2022-08-21T02:03:41;4.67;;;3.77;;
920;SDS011;447;51.332;6.778;2022-08-21T02:06:11;4.50;;;3.30;;
920;SDS011;447;51.332;6.778;2022-08-21T02:08:49;6.03;;;3.53;;
920;SDS011;447;51.332;6.778;2022-08-21T02:11:17;7.17;;;3.23;;
920;SDS011;447;51.332;6.778;2022-08-21T02:13:45;3.67;;;3.13;;
920;SDS011;447;51.332;6.778;2022-08-21T02:16:12;4.60;;;3.23;;
920;SDS011;447;51.332;6.778;2022-08-21T02:18:38;3.87;;;3.47;;
920;SDS011;447;51.332;6.778;2022-08-21T02:21:04;4.47;;;3.63;;
920;SDS011;447;51.332;6.778;2022-08-21T02:23:33;4.10;;;2.83;;
920;SDS011;447;51.332;6.778;2022-08-21T02:26:00;4.20;;;3.47;;
920;SDS011;447;51.332;6.778;2022-08-21T02:28:28;5.70;;;3.67;;
920;SDS011;447;51.332;6.778;2022-08-21T02:30:55;5.60;;;3.50;;
920;SDS011;447;51.332;6.778;2022-08-21T02:33:22;7.30;;;3.43;;
920;SDS011;447;51.332;6.778;2022-08-21T02:35:49;4.20;;;3.03;;
920;SDS011;447;51.332;6.778;2022-08-21T02:38:17;4.80;;;3.30;;
920;SDS011;447;51.332;6.778;2022-08-21T02:40:49;5.50;;;3.70;;
920;SDS011;447;51.332;6.778;2022-08-21T02:43:16;4.53;;;3.20;;
920;SDS011;447;51.332;6.778;2022-08-21T02:45:44;6.90;;;3.47;;
920;SDS011;447;51.332;6.778;2022-08-21T02:48:12;3.63;;;3.20;;
920;SDS011;447;51.332;6.778;2022-08-21T02:50:47;3.60;;;3.10;;
920;SDS011;447;51.332;6.778;2022-08-21T02:53:20;3.43;;;3.10;;
920;SDS011;447;51.332;6.778;2022-08-21T02:55:50;5.20;;;3.37;;
920;SDS011;447;51.332;6.778;2022-08-21T02:58:18;5.83;;;3.67;;
920;SDS011;447;51.332;6.778;2022-08-21T03:00:46;4.00;;;2.83;;
920;SDS011;447;51.332;6.778;2022-08-21T03:03:13;3.53;;;3.23;;
920;SDS011;447;51.332;6.778;2022-08-21T03:05:42;3.77;;;3.20;;
920;SDS011;447;51.332;6.778;2022-08-21T03:08:11;5.80;;;3.10;;
920;SDS011;447;51.332;6.778;2022-08-21T03:10:40;3.67;;;3.20;;
920;SDS011;447;51.332;6.778;2022-08-21T03:13:11;4.17;;;3.77;;
920;SDS011;447;51.332;6.778;2022-08-21T03:15:40;5.27;;;4.20;;
920;SDS011;447;51.332;6.778;2022-08-21T03:18:09;4.07;;;3.67;;
920;SDS011;447;51.332;6.778;2022-08-21T03:20:39;3.70;;;3.30;;
920;SDS011;447;51.332;6.778;2022-08-21T03:23:07;3.50;;;3.20;;
920;SDS011;447;51.332;6.778;2022-08-21T03:25:34;4.00;;;3.40;;
920;SDS011;447;51.332;6.778;2022-08-21T03:28:01;4.00;;;3.40;;
920;SDS011;447;51.332;6.778;2022-08-21T03:30:32;3.67;;;3.37;;
920;SDS011;447;51.332;6.778;2022-08-21T03:33:01;4.00;;;3.53;;
920;SDS011;447;51.332;6.778;2022-08-21T03:35:27;3.63;;;3.30;;
920;SDS011;447;51.332;6.778;2022-08-21T03:37:54;3.30;;;3.00;;
920;SDS011;447;51.332;6.778;2022-08-21T03:40:21;3.83;;;3.43;;
920;SDS011;447;51.332;6.778;2022-08-21T03:42:50;3.20;;;2.90;;
920;SDS011;447;51.332;6.778;2022-08-21T03:45:19;3.83;;;3.20;;
920;SDS011;447;51.332;6.778;2022-08-21T03:47:52;3.60;;;3.30;;
920;SDS011;447;51.332;6.778;2022-08-21T03:50:23;4.20;;;3.80;;
920;SDS011;447;51.332;6.778;2022-08-21T03:52:51;7.63;;;3.50;;
920;SDS011;447;51.332;6.778;2022-08-21T03:55:17;3.70;;;3.40;;
920;SDS011;447;51.332;6.778;2022-08-21T03:57:43;4.17;;;3.50;;
920;SDS011;447;51.332;6.778;2022-08-21T04:00:10;4.17;;;3.00;;
920;SDS011;447;51.332;6.778;2022-08-21T04:02:38;3.13;;;2.90;;
920;SDS011;447;51.332;6.778;2022-08-21T04:05:05;3.50;;;3.10;;
920;SDS011;447;51.332;6.778;2022-08-21T04:07:35;2.97;;;2.77;;
920;SDS011;447;51.332;6.778;2022-08-21T04:10:01;3.83;;;3.53;;
920;SDS011;447;51.332;6.778;2022-08-21T04:12:28;3.43;;;3.13;;
920;SDS011;447;51.332;6.778;2022-08-21T04:14:55;4.53;;;3.63;;
920;SDS011;447;51.332;6.778;2022-08-21T04:17:21;5.07;;;3.00;;
920;SDS011;447;51.332;6.778;2022-08-21T04:19:47;3.33;;;3.00;;
920;SDS011;447;51.332;6.778;2022-08-21T04:22:15;3.40;;;3.00;;
920;SDS011;447;51.332;6.778;2022-08-21T04:24:44;3.73;;;2.93;;
920;SDS011;447;51.332;6.778;2022-08-21T04:27:10;3.70;;;3.30;;
920;SDS011;447;51.332;6.778;2022-08-21T04:29:36;3.53;;;3.23;;
920;SDS011;447;51.332;6.778;2022-08-21T04:32:02;5.10;;;3.20;;
920;SDS011;447;51.332;6.778;2022-08-21T04:34:28;3.30;;;3.00;;
920;SDS011;447;51.332;6.778;2022-08-21T04:36:55;4.30;;;3.77;;
920;SDS011;447;51.332;6.778;2022-08-21T04:39:21;3.97;;;3.57;;
920;SDS011;447;51.332;6.778;2022-08-21T04:41:46;3.93;;;3.63;;
920;SDS011;447;51.332;6.778;2022-08-21T04:44:31;5.03;;;3.37;;
920;SDS011;447;51.332;6.778;2022-08-21T04:47:00;3.20;;;2.97;;
920;SDS011;447;51.332;6.778;2022-08-21T04:49:28;3.60;;;3.30;;
920;SDS011;447;51.332;6.778;2022-08-21T04:51:54;3.50;;;3.20;;
920;SDS011;447;51.332;6.778;2022-08-21T04:54:23;3.50;;;3.23;;
920;SDS011;447;51.332;6.778;2022-08-21T04:59:19;5.13;;;4.07;;
920;SDS011;447;51.332;6.778;2022-08-21T05:01:48;4.10;;;3.70;;
920;SDS011;447;51.332;6.778;2022-08-21T05:04:16;4.00;;;3.20;;
920;SDS011;447;51.332;6.778;2022-08-21T05:06:48;3.70;;;3.30;;
920;SDS011;447;51.332;6.778;2022-08-21T05:09:16;5.73;;;3.57;;
920;SDS011;447;51.332;6.778;2022-08-21T05:11:47;4.10;;;3.70;;
920;SDS011;447;51.332;6.778;2022-08-21T05:14:14;5.70;;;3.90;;
920;SDS011;447;51.332;6.778;2022-08-21T05:16:48;5.43;;;3.93;;
920;SDS011;447;51.332;6.778;2022-08-21T05:19:17;4.20;;;3.40;;
920;SDS011;447;51.332;6.778;2022-08-21T05:21:45;4.33;;;3.90;;
920;SDS011;447;51.332;6.778;2022-08-21T05:24:15;3.93;;;3.63;;
920;SDS011;447;51.332;6.778;2022-08-21T05:26:46;4.20;;;3.80;;
920;SDS011;447;51.332;6.778;2022-08-21T05:29:15;5.27;;;3.93;;
920;SDS011;447;51.332;6.778;2022-08-21T05:31:42;4.57;;;3.93;;
920;SDS011;447;51.332;6.778;2022-08-21T05:34:11;4.73;;;4.30;;
920;SDS011;447;51.332;6.778;2022-08-21T05:36:37;4.23;;;3.83;;
920;SDS011;447;51.332;6.778;2022-08-21T05:39:03;4.70;;;4.10;;
920;SDS011;447;51.332;6.778;2022-08-21T05:41:29;4.23;;;3.83;;
920;SDS011;447;51.332;6.778;2022-08-21T05:43:58;5.00;;;4.60;;
920;SDS011;447;51.332;6.778;2022-08-21T05:46:24;5.73;;;4.50;;
920;SDS011;447;51.332;6.778;2022-08-21T05:48:50;5.03;;;4.17;;
920;SDS011;447;51.332;6.778;2022-08-21T05:51:40;5.87;;;4.20;;
920;SDS011;447;51.332;6.778;2022-08-21T05:54:07;4.73;;;4.23;;
920;SDS011;447;51.332;6.778;2022-08-21T05:56:36;5.50;;;4.80;;
920;SDS011;447;51.332;6.778;2022-08-21T05:59:02;8.20;;;4.83;;
920;SDS011;447;51.332;6.778;2022-08-21T06:01:29;5.77;;;4.43;;
920;SDS011;447;51.332;6.778;2022-08-21T06:03:59;5.30;;;4.80;;
920;SDS011;447;51.332;6.778;2022-08-21T06:06:28;5.13;;;4.63;;
920;SDS011;447;51.332;6.778;2022-08-21T06:08:56;5.90;;;5.03;;
920;SDS011;447;51.332;6.778;2022-08-21T06:11:24;4.90;;;4.30;;
920;SDS011;447;51.332;6.778;2022-08-21T06:13:52;5.17;;;4.77;;
920;SDS011;447;51.332;6.778;2022-08-21T06:16:18;5.07;;;4.57;;
920;SDS011;447;51.332;6.778;2022-08-21T06:18:47;6.13;;;4.87;;
920;SDS011;447;51.332;6.778;2022-08-21T06:21:18;5.03;;;4.50;;
920;SDS011;447;51.332;6.778;2022-08-21T06:23:48;5.53;;;4.40;;
920;SDS011;447;51.332;6.778;2022-08-21T06:26:16;5.60;;;5.10;;
920;SDS011;447;51.332;6.778;2022-08-21T06:28:42;5.63;;;4.30;;
920;SDS011;447;51.332;6.778;2022-08-21T06:31:13;6.27;;;4.67;;
920;SDS011;447;51.332;6.778;2022-08-21T06:33:43;5.33;;;4.60;;
920;SDS011;447;51.332;6.778;2022-08-21T06:36:10;4.97;;;4.50;;
920;SDS011;447;51.332;6.778;2022-08-21T06:38:36;4.17;;;3.77;;
920;SDS011;447;51.332;6.778;2022-08-21T06:41:03;4.90;;;4.40;;
920;SDS011;447;51.332;6.778;2022-08-21T06:43:30;7.67;;;4.40;;
920;SDS011;447;51.332;6.778;2022-08-21T06:46:00;6.60;;;4.30;;
920;SDS011;447;51.332;6.778;2022-08-21T06:48:30;5.37;;;4.03;;
920;SDS011;447;51.332;6.778;2022-08-21T06:50:59;7.40;;;4.10;;
920;SDS011;447;51.332;6.778;2022-08-21T06:53:26;11.43;;;4.83;;
920;SDS011;447;51.332;6.778;2022-08-21T06:55:52;7.83;;;4.20;;
920;SDS011;447;51.332;6.778;2022-08-21T06:58:19;4.13;;;3.70;;
920;SDS011;447;51.332;6.778;2022-08-21T07:00:46;4.30;;;3.73;;
920;SDS011;447;51.332;6.778;2022-08-21T07:03:21;5.83;;;3.93;;
920;SDS011;447;51.332;6.778;2022-08-21T07:05:52;4.20;;;3.70;;
920;SDS011;447;51.332;6.778;2022-08-21T07:08:19;5.47;;;3.80;;
920;SDS011;447;51.332;6.778;2022-08-21T07:10:46;5.23;;;4.50;;
920;SDS011;447;51.332;6.778;2022-08-21T07:13:15;6.40;;;3.50;;
920;SDS011;447;51.332;6.778;2022-08-21T07:15:46;8.30;;;3.50;;
920;SDS011;447;51.332;6.778;2022-08-21T07:18:13;4.70;;;3.90;;
920;SDS011;447;51.332;6.778;2022-08-21T07:20:43;5.70;;;3.70;;
920;SDS011;447;51.332;6.778;2022-08-21T07:23:12;4.10;;;2.90;;
920;SDS011;447;51.332;6.778;2022-08-21T07:25:48;4.40;;;3.80;;
920;SDS011;447;51.332;6.778;2022-08-21T07:28:14;5.00;;;3.70;;
920;SDS011;447;51.332;6.778;2022-08-21T07:30:39;4.47;;;3.43;;
920;SDS011;447;51.332;6.778;2022-08-21T07:33:06;6.27;;;3.50;;
920;SDS011;447;51.332;6.778;2022-08-21T07:35:32;3.80;;;3.13;;
920;SDS011;447;51.332;6.778;2022-08-21T07:37:59;4.67;;;3.10;;
920;SDS011;447;51.332;6.778;2022-08-21T07:40:25;6.27;;;3.80;;
920;SDS011;447;51.332;6.778;2022-08-21T07:42:53;5.00;;;3.20;;
920;SDS011;447;51.332;6.778;2022-08-21T07:45:24;3.30;;;2.90;;
920;SDS011;447;51.332;6.778;2022-08-21T07:47:52;6.07;;;3.50;;
920;SDS011;447;51.332;6.778;2022-08-21T07:50:19;6.00;;;2.90;;
920;SDS011;447;51.332;6.778;2022-08-21T07:52:48;3.63;;;2.90;;
920;SDS011;447;51.332;6.778;2022-08-21T07:55:45;4.00;;;2.67;;
920;SDS011;447;51.332;6.778;2022-08-21T07:58:12;4.13;;;2.63;;
920;SDS011;447;51.332;6.778;2022-08-21T08:00:40;3.47;;;2.70;;
920;SDS011;447;51.332;6.778;2022-08-21T08:03:07;4.07;;;2.77;;
920;SDS011;447;51.332;6.778;2022-08-21T08:05:33;4.90;;;2.93;;
920;SDS011;447;51.332;6.778;2022-08-21T08:08:02;6.67;;;3.47;;
920;SDS011;447;51.332;6.778;2022-08-21T08:10:28;4.90;;;2.40;;
920;SDS011;447;51.332;6.778;2022-08-21T08:12:57;2.60;;;2.37;;
920;SDS011;447;51.332;6.778;2022-08-21T08:15:26;3.93;;;2.43;;
920;SDS011;447;51.332;6.778;2022-08-21T08:17:54;3.83;;;2.50;;
920;SDS011;447;51.332;6.778;2022-08-21T08:20:24;3.37;;;2.30;;
920;SDS011;447;51.332;6.778;2022-08-21T08:22:54;4.90;;;2.60;;
920;SDS011;447;51.332;6.778;2022-08-21T08:25:25;4.07;;;2.50;;
920;SDS011;447;51.332;6.778;2022-08-21T08:28:02;7.50;;;3.37;;
920;SDS011;447;51.332;6.778;2022-08-21T08:30:33;4.20;;;2.80;;
920;SDS011;447;51.332;6.778;2022-08-21T08:32:59;5.17;;;2.40;;
920;SDS011;447;51.332;6.778;2022-08-21T08:35:28;3.00;;;2.00;;
920;SDS011;447;51.332;6.778;2022-08-21T08:37:54;3.30;;;2.00;;
920;SDS011;447;51.332;6.778;2022-08-21T08:40:35;3.87;;;2.30;;
920;SDS011;447;51.332;6.778;2022-08-21T08:43:04;2.03;;;1.80;;
920;SDS011;447;51.332;6.778;2022-08-21T08:45:36;5.13;;;2.23;;
920;SDS011;447;51.332;6.778;2022-08-21T08:48:05;3.43;;;2.20;;
920;SDS011;447;51.332;6.778;2022-08-21T08:50:43;2.97;;;2.30;;
920;SDS011;447;51.332;6.778;2022-08-21T08:53:22;2.10;;;1.80;;
920;SDS011;447;51.332;6.778;2022-08-21T08:55:56;5.00;;;2.70;;
920;SDS011;447;51.332;6.778;2022-08-21T08:58:32;2.43;;;1.93;;
920;SDS011;447;51.332;6.778;2022-08-21T09:01:03;3.63;;;2.00;;
920;SDS011;447;51.332;6.778;2022-08-21T09:03:40;2.70;;;1.60;;
920;SDS011;447;51.332;6.778;2022-08-21T09:06:13;2.60;;;2.03;;
920;SDS011;447;51.332;6.778;2022-08-21T09:08:55;3.73;;;2.10;;
920;SDS011;447;51.332;6.778;2022-08-21T09:25:42;2.60;;;1.90;;
920;SDS011;447;51.332;6.778;2022-08-21T09:28:33;3.40;;;1.80;;
920;SDS011;447;51.332;6.778;2022-08-21T09:31:08;1.87;;;1.70;;
920;SDS011;447;51.332;6.778;2022-08-21T09:33:46;2.10;;;1.60;;
920;SDS011;447;51.332;6.778;2022-08-21T09:36:22;3.20;;;1.90;;
920;SDS011;447;51.332;6.778;2022-08-21T09:38:52;2.57;;;1.50;;
920;SDS011;447;51.332;6.778;2022-08-21T09:41:27;2.40;;;1.73;;
920;SDS011;447;51.332;6.778;2022-08-21T09:43:59;3.03;;;1.80;;
920;SDS011;447;51.332;6.778;2022-08-21T09:46:26;1.60;;;1.50;;
920;SDS011;447;51.332;6.778;2022-08-21T09:48:59;3.23;;;1.70;;
920;SDS011;447;51.332;6.778;2022-08-21T09:51:35;3.00;;;1.67;;
920;SDS011;447;51.332;6.778;2022-08-21T09:56:36;1.90;;;1.37;;
920;SDS011;447;51.332;6.778;2022-08-21T10:01:52;5.20;;;1.83;;
920;SDS011;447;51.332;6.778;2022-08-21T10:04:24;3.43;;;1.80;;
920;SDS011;447;51.332;6.778;2022-08-21T10:07:10;2.80;;;1.67;;
920;SDS011;447;51.332;6.778;2022-08-21T10:09:42;2.87;;;1.87;;
920;SDS011;447;51.332;6.778;2022-08-21T10:12:13;1.87;;;1.60;;
920;SDS011;447;51.332;6.778;2022-08-21T10:18:12;2.40;;;1.40;;
920;SDS011;447;51.332;6.778;2022-08-21T10:20:52;1.87;;;1.40;;
920;SDS011;447;51.332;6.778;2022-08-21T10:24:14;2.37;;;1.40;;
920;SDS011;447;51.332;6.778;2022-08-21T10:35:20;3.13;;;1.80;;
920;SDS011;447;51.332;6.778;2022-08-21T10:41:08;3.30;;;1.47;;
920;SDS011;447;51.332;6.778;2022-08-21T10:55:09;2.40;;;1.80;;
920;SDS011;447;51.332;6.778;2022-08-21T10:57:47;3.53;;;1.87;;
920;SDS011;447;51.332;6.778;2022-08-21T11:03:09;1.80;;;1.50;;
920;SDS011;447;51.332;6.778;2022-08-21T11:09:09;2.33;;;1.17;;
920;SDS011;447;51.332;6.778;2022-08-21T11:14:39;2.17;;;1.50;;
920;SDS011;447;51.332;6.778;2022-08-21T11:17:14;2.50;;;1.50;;
920;SDS011;447;51.332;6.778;2022-08-21T11:22:32;2.23;;;1.60;;
920;SDS011;447;51.332;6.778;2022-08-21T11:25:26;2.93;;;1.50;;
920;SDS011;447;51.332;6.778;2022-08-21T11:28:00;2.50;;;1.37;;
920;SDS011;447;51.332;6.778;2022-08-21T11:30:41;3.43;;;2.10;;
920;SDS011;447;51.332;6.778;2022-08-21T11:33:24;4.40;;;1.80;;
920;SDS011;447;51.332;6.778;2022-08-21T11:38:40;3.60;;;2.20;;
920;SDS011;447;51.332;6.778;2022-08-21T11:41:23;3.43;;;1.70;;
920;SDS011;447;51.332;6.778;2022-08-21T11:46:49;3.53;;;1.50;;
920;SDS011;447;51.332;6.778;2022-08-21T11:55:04;4.97;;;1.60;;
920;SDS011;447;51.332;6.778;2022-08-21T11:57:46;2.83;;;1.43;;
920;SDS011;447;51.332;6.778;2022-08-21T12:00:21;3.63;;;1.83;;
920;SDS011;447;51.332;6.778;2022-08-21T12:06:04;4.00;;;1.60;;
920;SDS011;447;51.332;6.778;2022-08-21T12:08:40;4.20;;;1.53;;
920;SDS011;447;51.332;6.778;2022-08-21T12:13:53;2.80;;;1.40;;
920;SDS011;447;51.332;6.778;2022-08-21T12:16:30;3.80;;;1.67;;
920;SDS011;447;51.332;6.778;2022-08-21T12:26:55;2.03;;;1.60;;
920;SDS011;447;51.332;6.778;2022-08-21T12:32:02;3.07;;;1.63;;
920;SDS011;447;51.332;6.778;2022-08-21T12:34:47;1.90;;;1.40;;
920;SDS011;447;51.332;6.778;2022-08-21T12:39:47;2.90;;;1.43;;
920;SDS011;447;51.332;6.778;2022-08-21T12:44:59;1.77;;;1.20;;
920;SDS011;447;51.332;6.778;2022-08-21T12:47:34;1.57;;;1.47;;
920;SDS011;447;51.332;6.778;2022-08-21T12:50:19;1.70;;;1.20;;
920;SDS011;447;51.332;6.778;2022-08-21T12:55:33;4.33;;;1.40;;
920;SDS011;447;51.332;6.778;2022-08-21T12:58:16;4.07;;;1.60;;
920;SDS011;447;51.332;6.778;2022-08-21T13:00:47;2.60;;;1.30;;
920;SDS011;447;51.332;6.778;2022-08-21T13:03:20;2.30;;;1.53;;
920;SDS011;447;51.332;6.778;2022-08-21T13:05:48;3.63;;;1.27;;
920;SDS011;447;51.332;6.778;2022-08-21T13:08:18;2.40;;;1.47;;
920;SDS011;447;51.332;6.778;2022-08-21T13:10:55;1.63;;;1.13;;
920;SDS011;447;51.332;6.778;2022-08-21T13:13:27;2.47;;;1.40;;
920;SDS011;447;51.332;6.778;2022-08-21T13:15:58;2.00;;;1.13;;
920;SDS011;447;51.332;6.778;2022-08-21T13:18:28;2.00;;;1.47;;
920;SDS011;447;51.332;6.778;2022-08-21T13:21:03;3.00;;;1.30;;
920;SDS011;447;51.332;6.778;2022-08-21T13:23:35;2.27;;;1.53;;
920;SDS011;447;51.332;6.778;2022-08-21T13:26:02;1.57;;;1.30;;
920;SDS011;447;51.332;6.778;2022-08-21T13:28:57;3.03;;;1.30;;
920;SDS011;447;51.332;6.778;2022-08-21T13:31:35;2.07;;;1.50;;
920;SDS011;447;51.332;6.778;2022-08-21T13:34:02;1.83;;;1.33;;
920;SDS011;447;51.332;6.778;2022-08-21T13:36:32;2.07;;;1.40;;
920;SDS011;447;51.332;6.778;2022-08-21T13:39:05;1.63;;;1.30;;
920;SDS011;447;51.332;6.778;2022-08-21T13:41:35;3.33;;;1.70;;
920;SDS011;447;51.332;6.778;2022-08-21T13:44:06;2.03;;;1.20;;
920;SDS011;447;51.332;6.778;2022-08-21T13:47:07;3.23;;;1.13;;
920;SDS011;447;51.332;6.778;2022-08-21T13:49:41;2.17;;;1.30;;
920;SDS011;447;51.332;6.778;2022-08-21T13:52:16;1.57;;;1.37;;
920;SDS011;447;51.332;6.778;2022-08-21T13:54:52;2.73;;;1.50;;
920;SDS011;447;51.332;6.778;2022-08-21T13:57:27;2.53;;;1.40;;
920;SDS011;447;51.332;6.778;2022-08-21T14:00:12;3.90;;;1.40;;
920;SDS011;447;51.332;6.778;2022-08-21T14:02:51;1.40;;;1.30;;
920;SDS011;447;51.332;6.778;2022-08-21T14:05:36;2.30;;;1.37;;
920;SDS011;447;51.332;6.778;2022-08-21T14:08:12;2.43;;;1.80;;
920;SDS011;447;51.332;6.778;2022-08-21T14:10:50;2.67;;;1.57;;
920;SDS011;447;51.332;6.778;2022-08-21T14:13:39;2.37;;;1.70;;
920;SDS011;447;51.332;6.778;2022-08-21T14:16:13;1.90;;;1.60;;
920;SDS011;447;51.332;6.778;2022-08-21T14:21:35;2.33;;;1.57;;
920;SDS011;447;51.332;6.778;2022-08-21T14:24:12;3.83;;;1.37;;
920;SDS011;447;51.332;6.778;2022-08-21T14:29:22;3.20;;;1.77;;
920;SDS011;447;51.332;6.778;2022-08-21T14:31:57;3.10;;;1.30;;
920;SDS011;447;51.332;6.778;2022-08-21T14:34:26;4.07;;;1.53;;
920;SDS011;447;51.332;6.778;2022-08-21T14:36:54;2.40;;;1.20;;
920;SDS011;447;51.332;6.778;2022-08-21T14:39:21;2.87;;;1.40;;
920;SDS011;447;51.332;6.778;2022-08-21T14:41:50;1.50;;;1.20;;
920;SDS011;447;51.332;6.778;2022-08-21T14:44:20;2.33;;;1.67;;
920;SDS011;447;51.332;6.778;2022-08-21T14:46:47;2.40;;;1.57;;
920;SDS011;447;51.332;6.778;2022-08-21T14:49:13;3.13;;;1.90;;
920;SDS011;447;51.332;6.778;2022-08-21T14:51:43;1.60;;;1.50;;
920;SDS011;447;51.332;6.778;2022-08-21T14:54:09;1.80;;;1.40;;
920;SDS011;447;51.332;6.778;2022-08-21T14:56:35;1.60;;;1.50;;
920;SDS011;447;51.332;6.778;2022-08-21T14:59:07;3.10;;;1.57;;
920;SDS011;447;51.332;6.778;2022-08-21T15:01:35;3.30;;;1.83;;
920;SDS011;447;51.332;6.778;2022-08-21T15:04:03;2.10;;;1.30;;
920;SDS011;447;51.332;6.778;2022-08-21T15:06:29;2.00;;;1.40;;
920;SDS011;447;51.332;6.778;2022-08-21T15:08:57;2.00;;;1.60;;
920;SDS011;447;51.332;6.778;2022-08-21T15:11:24;2.83;;;1.60;;
920;SDS011;447;51.332;6.778;2022-08-21T15:13:52;2.97;;;1.50;;
920;SDS011;447;51.332;6.778;2022-08-21T15:16:26;1.57;;;1.47;;
920;SDS011;447;51.332;6.778;2022-08-21T15:18:57;1.63;;;1.33;;
920;SDS011;447;51.332;6.778;2022-08-21T15:21:23;2.77;;;1.70;;
920;SDS011;447;51.332;6.778;2022-08-21T15:23:52;2.23;;;1.37;;
920;SDS011;447;51.332;6.778;2022-08-21T15:26:19;2.40;;;1.37;;
920;SDS011;447;51.332;6.778;2022-08-21T15:28:51;2.13;;;1.57;;
920;SDS011;447;51.332;6.778;2022-08-21T15:31:17;2.93;;;1.63;;
920;SDS011;447;51.332;6.778;2022-08-21T15:33:43;2.20;;;2.00;;
920;SDS011;447;51.332;6.778;2022-08-21T15:36:12;2.83;;;2.30;;
920;SDS011;447;51.332;6.778;2022-08-21T15:38:38;2.53;;;2.00;;
920;SDS011;447;51.332;6.778;2022-08-21T15:41:04;3.80;;;1.83;;
920;SDS011;447;51.332;6.778;2022-08-21T15:43:43;2.33;;;1.70;;
920;SDS011;447;51.332;6.778;2022-08-21T15:46:15;2.07;;;1.70;;
920;SDS011;447;51.332;6.778;2022-08-21T15:48:45;3.97;;;1.67;;
920;SDS011;447;51.332;6.778;2022-08-21T15:51:14;3.80;;;1.67;;
920;SDS011;447;51.332;6.778;2022-08-21T15:53:43;4.30;;;2.03;;
920;SDS011;447;51.332;6.778;2022-08-21T15:56:17;2.80;;;1.80;;
920;SDS011;447;51.332;6.778;2022-08-21T15:58:50;3.47;;;2.07;;
920;SDS011;447;51.332;6.778;2022-08-21T16:01:19;3.63;;;1.87;;
920;SDS011;447;51.332;6.778;2022-08-21T16:03:49;2.83;;;1.90;;
920;SDS011;447;51.332;6.778;2022-08-21T16:06:20;3.33;;;1.80;;
920;SDS011;447;51.332;6.778;2022-08-21T16:08:48;2.33;;;1.83;;
920;SDS011;447;51.332;6.778;2022-08-21T16:11:14;3.33;;;1.90;;
920;SDS011;447;51.332;6.778;2022-08-21T16:13:44;3.20;;;1.63;;
920;SDS011;447;51.332;6.778;2022-08-21T16:16:15;3.97;;;1.90;;
920;SDS011;447;51.332;6.778;2022-08-21T16:18:45;2.53;;;1.50;;
920;SDS011;447;51.332;6.778;2022-08-21T16:21:14;2.10;;;1.70;;
920;SDS011;447;51.332;6.778;2022-08-21T16:23:41;2.70;;;1.80;;
920;SDS011;447;51.332;6.778;2022-08-21T16:26:12;2.10;;;1.90;;
920;SDS011;447;51.332;6.778;2022-08-21T16:28:39;2.90;;;1.90;;
920;SDS011;447;51.332;6.778;2022-08-21T16:31:12;2.00;;;1.47;;
920;SDS011;447;51.332;6.778;2022-08-21T16:33:43;3.37;;;1.67;;
920;SDS011;447;51.332;6.778;2022-08-21T16:36:13;1.97;;;1.87;;
920;SDS011;447;51.332;6.778;2022-08-21T16:38:40;3.63;;;1.87;;
920;SDS011;447;51.332;6.778;2022-08-21T16:41:09;2.70;;;1.70;;
920;SDS011;447;51.332;6.778;2022-08-21T16:43:46;2.50;;;1.70;;
920;SDS011;447;51.332;6.778;2022-08-21T16:46:18;2.53;;;2.00;;
920;SDS011;447;51.332;6.778;2022-08-21T16:48:46;3.53;;;1.50;;
920;SDS011;447;51.332;6.778;2022-08-21T16:51:12;3.30;;;2.10;;
920;SDS011;447;51.332;6.778;2022-08-21T16:53:39;3.30;;;2.50;;
920;SDS011;447;51.332;6.778;2022-08-21T16:56:07;2.03;;;1.87;;
920;SDS011;447;51.332;6.778;2022-08-21T16:58:37;2.57;;;1.80;;
920;SDS011;447;51.332;6.778;2022-08-21T17:01:08;3.00;;;2.07;;
920;SDS011;447;51.332;6.778;2022-08-21T17:03:40;3.80;;;2.13;;
920;SDS011;447;51.332;6.778;2022-08-21T17:06:09;3.23;;;2.30;;
920;SDS011;447;51.332;6.778;2022-08-21T17:08:36;2.07;;;1.80;;
920;SDS011;447;51.332;6.778;2022-08-21T17:11:05;2.00;;;1.63;;
920;SDS011;447;51.332;6.778;2022-08-21T17:13:35;3.83;;;2.17;;
920;SDS011;447;51.332;6.778;2022-08-21T17:16:04;3.30;;;1.90;;
920;SDS011;447;51.332;6.778;2022-08-21T17:18:31;4.37;;;2.20;;
920;SDS011;447;51.332;6.778;2022-08-21T17:21:03;3.20;;;2.47;;
920;SDS011;447;51.332;6.778;2022-08-21T17:23:32;2.20;;;1.83;;
920;SDS011;447;51.332;6.778;2022-08-21T17:25:59;2.83;;;1.57;;
920;SDS011;447;51.332;6.778;2022-08-21T17:28:26;3.00;;;1.97;;
920;SDS011;447;51.332;6.778;2022-08-21T17:30:56;3.60;;;2.20;;
920;SDS011;447;51.332;6.778;2022-08-21T17:33:24;5.27;;;2.33;;
920;SDS011;447;51.332;6.778;2022-08-21T17:35:53;6.10;;;2.40;;
920;SDS011;447;51.332;6.778;2022-08-21T17:38:19;4.37;;;2.50;;
920;SDS011;447;51.332;6.778;2022-08-21T17:40:48;3.53;;;1.93;;
920;SDS011;447;51.332;6.778;2022-08-21T17:43:15;5.30;;;2.07;;
920;SDS011;447;51.332;6.778;2022-08-21T17:45:41;8.33;;;2.47;;
920;SDS011;447;51.332;6.778;2022-08-21T17:48:08;4.60;;;2.40;;
920;SDS011;447;51.332;6.778;2022-08-21T17:50:37;3.13;;;1.90;;
920;SDS011;447;51.332;6.778;2022-08-21T17:53:05;7.90;;;2.60;;